Perkinsville, Vermont
Current Conditions -  °F | °C
As of 3:54 PM on Sunday 23 Nov 2014 (Local Time) from KVSF Reporting Station
Overcast Overcast  
Wind Chill: 50°   Ceiling: 11000
Heat Index: 50°   Visibility: 10mi
Dew Point: 39°   Wind: 0mph
Humidity: 66%   Direction: NA
Pressure: 30.07"   Gusts: NA
Location:  43.37°N, 72.51°W
Report Text: KVSF 232054Z AUTO 00000KT 10SM OVC110 10/04 A3007 RMK AO2 SLP187 T01000039 50002
Loading
Personal Weather Stations






























Interactive Weather Map New forecast layout! Learn more

10-Day Weather Forecast

Advertisements
Track Severe Weather on mobile